Terminal Aerodrome Forecast
Issued by NWS

Home | Current Version | Previous Version | Graphics & Text | Print | Product List | Glossary On
Versions: 1 2 3 4 5 6 7 8 9 10 11 12 13 14 15
000
FTUS43 KICT 091700
TAFRSL
TAF
KRSL 091731Z 0918/1018 18013G21KT P6SM SCT100 SCT200
     FM100200 13015KT P6SM VCTS SCT050 OVC090CB
     FM100800 15015G22KT P6SM SCT100 BKN150=

USA.gov is the U.S. government's official web portal to all federal, state and local government web resources and services.